createdAt,value
2017-01-08T00:00:44.201Z,0
2017-01-08T00:01:44.142Z,0
2017-01-08T00:02:44.099Z,0
2017-01-08T00:03:43.516Z,0
2017-01-08T00:04:44.221Z,0
2017-01-08T00:05:44.290Z,0
2017-01-08T00:06:44.195Z,0
2017-01-08T00:07:43.570Z,0
2017-01-08T00:08:44.340Z,0
2017-01-08T00:09:43.932Z,0
2017-01-08T00:10:44.293Z,0
2017-01-08T00:11:44.334Z,0
2017-01-08T00:12:44.791Z,0
2017-01-08T00:13:43.611Z,0
2017-01-08T00:14:43.600Z,0
2017-01-08T00:15:44.042Z,0
2017-01-08T00:16:44.458Z,0
2017-01-08T00:17:44.090Z,0
2017-01-08T00:18:44.119Z,0
2017-01-08T00:19:43.739Z,0
2017-01-08T00:20:44.560Z,0
2017-01-08T00:21:44.981Z,0
2017-01-08T00:22:44.618Z,0
2017-01-08T00:23:44.242Z,0
2017-01-08T00:24:44.667Z,0
2017-01-08T00:25:44.296Z,0
2017-01-08T00:26:44.721Z,0
2017-01-08T00:27:44.750Z,0
2017-01-08T00:28:44.770Z,0
2017-01-08T00:29:45.196Z,0
2017-01-08T00:30:45.220Z,0
2017-01-08T00:31:44.850Z,0
2017-01-08T00:32:44.489Z,0
2017-01-08T00:33:44.110Z,0
2017-01-08T00:34:44.543Z,0
2017-01-08T00:35:44.949Z,0
2017-01-08T00:36:44.184Z,0
2017-01-08T00:37:44.602Z,0
2017-01-08T00:38:45.426Z,0
2017-01-08T00:39:44.262Z,0
2017-01-08T00:40:45.083Z,0
2017-01-08T00:41:45.511Z,0
2017-01-08T00:42:44.743Z,0
2017-01-08T00:43:44.766Z,0
2017-01-08T00:44:44.423Z,0
2017-01-08T00:45:45.599Z,0
2017-01-08T00:46:45.628Z,0
2017-01-08T00:47:45.265Z,0
2017-01-08T00:48:45.285Z,0
2017-01-08T00:49:45.702Z,0
2017-01-08T00:50:44.943Z,0
2017-01-08T00:51:45.368Z,0
2017-01-08T00:52:45.392Z,0
2017-01-08T00:53:45.025Z,0
2017-01-08T00:54:45.434Z,0
2017-01-08T00:55:45.074Z,0
2017-01-08T00:56:45.095Z,0
2017-01-08T00:57:44.728Z,0
2017-01-08T00:58:45.549Z,0
2017-01-08T00:59:45.577Z,0
2017-01-08T01:00:45.598Z,0
2017-01-08T01:01:45.628Z,0
2017-01-08T01:02:45.255Z,0
2017-01-08T01:03:45.676Z,0
2017-01-08T01:04:45.308Z,0
2017-01-08T01:05:44.939Z,0
2017-01-08T01:06:45.359Z,0
2017-01-08T01:07:45.783Z,0
2017-01-08T01:08:45.412Z,0
2017-01-08T01:09:45.833Z,0
2017-01-08T01:10:46.254Z,0
2017-01-08T01:11:45.094Z,0
2017-01-08T01:12:45.515Z,0
2017-01-08T01:13:45.144Z,0
2017-01-08T01:14:45.960Z,0
2017-01-08T01:15:45.985Z,0
2017-01-08T01:16:45.221Z,0
2017-01-08T01:17:46.034Z,0
2017-01-08T01:18:46.455Z,0
2017-01-08T01:19:45.302Z,0
2017-01-08T01:20:45.324Z,0
2017-01-08T01:21:45.738Z,0
2017-01-08T01:22:45.370Z,0
2017-01-08T01:23:45.800Z,0
2017-01-08T01:24:45.820Z,0
2017-01-08T01:25:45.848Z,0
2017-01-08T01:26:46.661Z,0
2017-01-08T01:27:45.907Z,0
2017-01-08T01:28:45.931Z,0
2017-01-08T01:29:45.947Z,0
2017-01-08T01:30:46.369Z,0
2017-01-08T01:31:45.609Z,0
2017-01-08T01:32:46.435Z,0
2017-01-08T01:33:46.851Z,0
2017-01-08T01:34:46.467Z,0
2017-01-08T01:35:46.104Z,0
2017-01-08T01:36:45.745Z,0
2017-01-08T01:37:45.758Z,0
2017-01-08T01:38:46.578Z,0
2017-01-08T01:39:46.607Z,0
2017-01-08T01:40:46.236Z,0
2017-01-08T01:41:47.057Z,0
2017-01-08T01:42:46.282Z,0
2017-01-08T01:43:46.314Z,0
2017-01-08T01:44:46.739Z,0
2017-01-08T01:45:45.968Z,0
2017-01-08T01:46:46.789Z,0
2017-01-08T01:47:46.817Z,0
2017-01-08T01:48:46.842Z,0
2017-01-08T01:49:46.467Z,0
2017-01-08T01:50:46.883Z,0
2017-01-08T01:51:46.917Z,0
2017-01-08T01:52:46.545Z,0
2017-01-08T01:53:47.370Z,0
2017-01-08T01:54:46.595Z,0
2017-01-08T01:55:46.620Z,0
2017-01-08T01:56:47.038Z,0
2017-01-08T01:57:47.068Z,0
2017-01-08T01:58:46.693Z,0
2017-01-08T01:59:47.118Z,0
2017-01-08T02:00:46.363Z,0
2017-01-08T02:01:47.168Z,0
2017-01-08T02:02:46.399Z,0
2017-01-08T02:03:46.426Z,0
2017-01-08T02:04:47.646Z,0
2017-01-08T02:05:47.666Z,0
2017-01-08T02:06:47.307Z,0
2017-01-08T02:07:47.328Z,0
2017-01-08T02:08:47.358Z,0
2017-01-08T02:09:46.974Z,0
2017-01-08T02:10:47.006Z,0
2017-01-08T02:11:47.830Z,0
2017-01-08T02:12:47.849Z,0
2017-01-08T02:13:46.681Z,0
2017-01-08T02:14:46.713Z,0
2017-01-08T02:15:47.126Z,0
2017-01-08T02:16:47.558Z,0
2017-01-08T02:17:47.180Z,0
2017-01-08T02:18:47.609Z,0
2017-01-08T02:19:47.925Z,0
2017-01-08T02:20:48.065Z,0
2017-01-08T02:21:46.879Z,0
2017-01-08T02:22:47.309Z,0
2017-01-08T02:23:47.732Z,0
2017-01-08T02:24:47.401Z,0
2017-01-08T02:25:47.786Z,0
2017-01-08T02:26:47.415Z,0
2017-01-08T02:27:48.227Z,0
2017-01-08T02:28:48.252Z,0
2017-01-08T02:29:47.088Z,0
2017-01-08T02:30:47.125Z,0
2017-01-08T02:31:47.539Z,0
2017-01-08T02:32:47.554Z,0
2017-01-08T02:33:47.984Z,0
2017-01-08T02:34:48.412Z,0
2017-01-08T02:35:47.640Z,0
2017-01-08T02:36:47.665Z,0
2017-01-08T02:37:48.085Z,0
2017-01-08T02:38:47.719Z,0
2017-01-08T02:39:47.743Z,0
2017-01-08T02:40:48.167Z,0
2017-01-08T02:41:47.793Z,0
2017-01-08T02:42:48.216Z,0
2017-01-08T02:43:48.241Z,0
2017-01-08T02:44:47.474Z,0
2017-01-08T02:45:48.290Z,0
2017-01-08T02:46:47.922Z,0
2017-01-08T02:47:48.736Z,0
2017-01-08T02:48:47.976Z,0
2017-01-08T02:49:48.793Z,0
2017-01-08T02:50:48.869Z,0
2017-01-08T02:51:48.046Z,0
2017-01-08T02:52:48.483Z,0
2017-01-08T02:53:48.098Z,0
2017-01-08T02:54:48.132Z,0
2017-01-08T02:55:48.145Z,0
2017-01-08T02:56:48.573Z,0
2017-01-08T02:57:48.594Z,0
2017-01-08T02:58:48.225Z,0
2017-01-08T02:59:48.274Z,0
2017-01-08T03:00:48.669Z,0
2017-01-08T03:01:48.300Z,0
2017-01-08T03:02:47.932Z,0
2017-01-08T03:03:48.361Z,0
2017-01-08T03:04:48.798Z,0
2017-01-08T03:05:48.807Z,0
2017-01-08T03:06:48.035Z,0
2017-01-08T03:07:49.243Z,0
2017-01-08T03:08:48.092Z,0
2017-01-08T03:09:48.505Z,0
2017-01-08T03:10:48.133Z,0
2017-01-08T03:11:48.953Z,0
2017-01-08T03:12:49.397Z,0
2017-01-08T03:13:48.996Z,0
2017-01-08T03:14:49.026Z,0
2017-01-08T03:15:48.267Z,0
2017-01-08T03:16:48.291Z,0
2017-01-08T03:17:49.103Z,0
2017-01-08T03:18:49.128Z,0
2017-01-08T03:19:49.148Z,0
2017-01-08T03:20:49.177Z,0
2017-01-08T03:21:49.611Z,0
2017-01-08T03:22:48.430Z,0
2017-01-08T03:23:48.458Z,0
2017-01-08T03:24:49.675Z,0
2017-01-08T03:25:48.516Z,0
2017-01-08T03:26:49.328Z,0
2017-01-08T03:27:49.750Z,0
2017-01-08T03:28:49.377Z,0
2017-01-08T03:29:48.610Z,0
2017-01-08T03:30:49.027Z,0
2017-01-08T03:31:49.055Z,0
2017-01-08T03:32:49.088Z,0
2017-01-08T03:33:49.109Z,0
2017-01-08T03:34:49.930Z,0
2017-01-08T03:35:49.186Z,0
2017-01-08T03:36:49.586Z,0
2017-01-08T03:37:49.620Z,0
2017-01-08T03:38:48.848Z,0
2017-01-08T03:39:49.260Z,0
2017-01-08T03:40:48.894Z,0
2017-01-08T03:41:49.310Z,0
2017-01-08T03:42:49.739Z,0
2017-01-08T03:43:49.366Z,0
2017-01-08T03:44:49.397Z,0
2017-01-08T03:45:50.205Z,0
2017-01-08T03:46:49.838Z,0
2017-01-08T03:47:49.857Z,0
2017-01-08T03:48:49.898Z,0
2017-01-08T03:49:49.910Z,0
2017-01-08T03:50:49.935Z,0
2017-01-08T03:51:49.573Z,0
2017-01-08T03:52:49.201Z,0
2017-01-08T03:53:49.225Z,0
2017-01-08T03:54:49.642Z,0
2017-01-08T03:55:50.059Z,0
2017-01-08T03:56:49.691Z,0
2017-01-08T03:57:50.112Z,0
2017-01-08T03:58:50.142Z,0
2017-01-08T03:59:50.573Z,0
2017-01-08T04:00:50.194Z,0
2017-01-08T04:01:49.823Z,0
2017-01-08T04:02:50.244Z,0
2017-01-08T04:03:50.663Z,0
2017-01-08T04:04:49.898Z,0
2017-01-08T04:05:49.921Z,0
2017-01-08T04:06:49.555Z,0
2017-01-08T04:07:49.970Z,0
2017-01-08T04:08:50.795Z,0
2017-01-08T04:09:49.620Z,0
2017-01-08T04:10:50.053Z,0
2017-01-08T04:11:50.466Z,0
2017-01-08T04:12:50.497Z,0
2017-01-08T04:13:50.134Z,0
2017-01-08T04:14:50.151Z,0
2017-01-08T04:15:50.172Z,0
2017-01-08T04:16:51.001Z,0
2017-01-08T04:17:50.621Z,0
2017-01-08T04:18:50.253Z,0
2017-01-08T04:19:50.671Z,0
2017-01-08T04:20:49.904Z,0
2017-01-08T04:21:50.332Z,0
2017-01-08T04:22:50.745Z,0
2017-01-08T04:23:50.382Z,0
2017-01-08T04:24:50.399Z,0
2017-01-08T04:25:50.826Z,0
2017-01-08T04:26:50.856Z,0
2017-01-08T04:27:50.505Z,0
2017-01-08T04:28:50.506Z,0
2017-01-08T04:29:50.559Z,0
2017-01-08T04:30:50.164Z,0
2017-01-08T04:31:50.581Z,0
2017-01-08T04:32:50.602Z,0
2017-01-08T04:33:51.426Z,0
2017-01-08T04:34:51.460Z,0
2017-01-08T04:35:50.288Z,0
2017-01-08T04:36:50.711Z,0
2017-01-08T04:37:51.133Z,0
2017-01-08T04:38:51.190Z,0
2017-01-08T04:39:51.179Z,0
2017-01-08T04:40:50.812Z,0
2017-01-08T04:41:50.836Z,0
2017-01-08T04:42:51.261Z,0
2017-01-08T04:43:50.890Z,0
2017-01-08T04:44:50.503Z,0
2017-01-08T04:45:50.943Z,0
2017-01-08T04:46:51.764Z,0
2017-01-08T04:47:51.389Z,0
2017-01-08T04:48:51.803Z,0
2017-01-08T04:49:51.438Z,0
2017-01-08T04:50:51.063Z,0
2017-01-08T04:51:51.093Z,0
2017-01-08T04:52:51.125Z,0
2017-01-08T04:53:51.146Z,0
2017-01-08T04:54:51.562Z,0
2017-01-08T04:55:51.593Z,0
2017-01-08T04:56:52.007Z,0
2017-01-08T04:57:51.641Z,0
2017-01-08T04:58:51.277Z,0
2017-01-08T04:59:51.306Z,0
2017-01-08T05:00:51.715Z,0
2017-01-08T05:01:50.957Z,0
2017-01-08T05:02:51.773Z,0
2017-01-08T05:03:51.805Z,0
2017-01-08T05:04:51.814Z,0
2017-01-08T05:05:51.051Z,0
2017-01-08T05:06:51.876Z,0
2017-01-08T05:07:51.896Z,0
2017-01-08T05:08:51.513Z,0
2017-01-08T05:09:51.950Z,0
2017-01-08T05:10:52.375Z,0
2017-01-08T05:11:51.612Z,0
2017-01-08T05:12:51.232Z,0
2017-01-08T05:13:51.661Z,0
2017-01-08T05:14:51.279Z,0
2017-01-08T05:15:51.703Z,0
2017-01-08T05:16:52.527Z,0
2017-01-08T05:17:51.364Z,0
2017-01-08T05:18:51.768Z,0
2017-01-08T05:19:51.809Z,0
2017-01-08T05:20:52.230Z,0
2017-01-08T05:21:51.464Z,0
2017-01-08T05:22:51.884Z,0
2017-01-08T05:23:52.305Z,0
2017-01-08T05:24:51.941Z,0
2017-01-08T05:25:52.362Z,0
2017-01-08T05:26:51.578Z,0
2017-01-08T05:27:52.411Z,0
2017-01-08T05:28:52.435Z,0
2017-01-08T05:29:52.061Z,0
2017-01-08T05:30:52.473Z,0
2017-01-08T05:31:52.918Z,0
2017-01-08T05:32:52.135Z,0
2017-01-08T05:33:52.172Z,0
2017-01-08T05:34:52.572Z,0
2017-01-08T05:35:52.229Z,0
2017-01-08T05:36:52.231Z,0
2017-01-08T05:37:52.259Z,0
2017-01-08T05:38:52.320Z,0
2017-01-08T05:39:52.723Z,0
2017-01-08T05:40:52.733Z,0
2017-01-08T05:41:52.361Z,0
2017-01-08T05:42:52.390Z,0
2017-01-08T05:43:52.014Z,0
2017-01-08T05:44:52.432Z,0
2017-01-08T05:45:52.856Z,0
2017-01-08T05:46:52.084Z,0
2017-01-08T05:47:52.917Z,0
2017-01-08T05:48:52.538Z,0
2017-01-08T05:49:52.583Z,0
2017-01-08T05:50:52.598Z,0
2017-01-08T05:51:52.224Z,0
2017-01-08T05:52:52.649Z,0
2017-01-08T05:53:52.663Z,0
2017-01-08T05:54:53.079Z,0
2017-01-08T05:55:52.315Z,0
2017-01-08T05:56:53.560Z,0
2017-01-08T05:57:53.568Z,0
2017-01-08T05:58:53.189Z,0
2017-01-08T05:59:52.824Z,0
2017-01-08T06:00:53.238Z,0
2017-01-08T06:01:53.263Z,0
2017-01-08T06:02:53.296Z,0
2017-01-08T06:03:52.921Z,0
2017-01-08T06:04:52.970Z,0
2017-01-08T06:05:53.375Z,0
2017-01-08T06:06:52.603Z,0
2017-01-08T06:07:53.828Z,0
2017-01-08T06:08:53.445Z,0
2017-01-08T06:09:53.073Z,0
2017-01-08T06:10:53.487Z,0
2017-01-08T06:11:53.523Z,0
2017-01-08T06:12:53.552Z,0
2017-01-08T06:13:53.609Z,0
2017-01-08T06:14:53.212Z,0
2017-01-08T06:15:53.233Z,0
2017-01-08T06:16:53.256Z,0
2017-01-08T06:17:54.069Z,0
2017-01-08T06:18:53.701Z,0
2017-01-08T06:19:52.938Z,0
2017-01-08T06:20:52.967Z,0
2017-01-08T06:21:53.390Z,0
2017-01-08T06:22:53.013Z,0
2017-01-08T06:23:54.234Z,0
2017-01-08T06:24:54.259Z,0
2017-01-08T06:25:53.896Z,0
2017-01-08T06:26:53.119Z,0
2017-01-08T06:27:53.545Z,0
2017-01-08T06:28:53.565Z,0
2017-01-08T06:29:53.594Z,0
2017-01-08T06:30:53.616Z,0
2017-01-08T06:31:53.240Z,0
2017-01-08T06:32:53.673Z,0
2017-01-08T06:33:53.686Z,0
2017-01-08T06:34:53.714Z,0
2017-01-08T06:35:54.155Z,0
2017-01-08T06:36:53.768Z,0
2017-01-08T06:37:53.797Z,0
2017-01-08T06:38:54.214Z,0
2017-01-08T06:39:53.858Z,0
2017-01-08T06:40:54.652Z,0
2017-01-08T06:41:54.692Z,0
2017-01-08T06:42:54.321Z,0
2017-01-08T06:43:53.554Z,0
2017-01-08T06:44:53.575Z,0
2017-01-08T06:45:54.404Z,0
2017-01-08T06:46:54.029Z,0
2017-01-08T06:47:54.054Z,0
2017-01-08T06:48:54.078Z,0
2017-01-08T06:49:54.507Z,0
2017-01-08T06:50:54.133Z,0
2017-01-08T06:51:54.161Z,0
2017-01-08T06:52:54.577Z,0
2017-01-08T06:53:54.611Z,0
2017-01-08T06:54:54.632Z,0
2017-01-08T06:55:54.271Z,0
2017-01-08T06:56:54.281Z,0
2017-01-08T06:57:55.102Z,0
2017-01-08T06:58:54.735Z,0
2017-01-08T06:59:53.972Z,0
2017-01-08T07:00:53.980Z,0
2017-01-08T07:01:54.809Z,0
2017-01-08T07:02:54.846Z,0
2017-01-08T07:03:54.479Z,4
2017-01-08T07:04:54.096Z,4
2017-01-08T07:05:54.141Z,4
2017-01-08T07:06:55.330Z,4
2017-01-08T07:07:55.362Z,0
2017-01-08T07:08:54.987Z,0
2017-01-08T07:09:54.620Z,4
2017-01-08T07:10:54.657Z,4
2017-01-08T07:11:54.271Z,4
2017-01-08T07:12:54.698Z,4
2017-01-08T07:13:55.518Z,4
2017-01-08T07:14:55.136Z,4
2017-01-08T07:15:55.189Z,8
2017-01-08T07:16:55.193Z,8
2017-01-08T07:17:55.225Z,8
2017-01-08T07:18:55.246Z,12
2017-01-08T07:19:54.487Z,12
2017-01-08T07:20:55.307Z,12
2017-01-08T07:21:55.333Z,12
2017-01-08T07:22:55.353Z,20
2017-01-08T07:23:55.372Z,20
2017-01-08T07:24:55.406Z,20
2017-01-08T07:25:55.827Z,20
2017-01-08T07:26:55.063Z,24
2017-01-08T07:27:55.096Z,28
2017-01-08T07:28:55.110Z,32
2017-01-08T07:29:55.541Z,36
2017-01-08T07:30:54.766Z,40
2017-01-08T07:31:55.195Z,48
2017-01-08T07:32:56.008Z,52
2017-01-08T07:33:55.644Z,48
2017-01-08T07:34:55.269Z,52
2017-01-08T07:35:56.078Z,56
2017-01-08T07:36:55.327Z,60
2017-01-08T07:37:55.359Z,64
2017-01-08T07:38:54.972Z,68
2017-01-08T07:39:55.388Z,80
2017-01-08T07:40:56.250Z,84
2017-01-08T07:41:56.259Z,84
2017-01-08T07:42:55.471Z,80
2017-01-08T07:43:55.925Z,84
2017-01-08T07:44:55.536Z,92
2017-01-08T07:45:56.345Z,104
2017-01-08T07:46:55.574Z,104
2017-01-08T07:47:56.011Z,100
2017-01-08T07:48:55.242Z,108
2017-01-08T07:49:56.045Z,116
2017-01-08T07:50:56.090Z,112
2017-01-08T07:51:56.110Z,104
2017-01-08T07:52:55.739Z,100
2017-01-08T07:53:56.159Z,96
2017-01-08T07:54:55.788Z,104
2017-01-08T07:55:56.189Z,120
2017-01-08T07:56:55.838Z,116
2017-01-08T07:57:55.866Z,120
2017-01-08T07:58:56.707Z,120
2017-01-08T07:59:56.320Z,124
2017-01-08T08:00:56.388Z,140
2017-01-08T08:01:55.977Z,148
2017-01-08T08:02:56.002Z,160
2017-01-08T08:03:56.020Z,160
2017-01-08T08:04:56.045Z,168
2017-01-08T08:05:56.072Z,184
2017-01-08T08:06:55.728Z,196
2017-01-08T08:07:56.525Z,204
2017-01-08T08:08:56.153Z,216
2017-01-08T08:09:56.182Z,212
2017-01-08T08:10:56.598Z,216
2017-01-08T08:11:56.239Z,212
2017-01-08T08:12:57.048Z,212
2017-01-08T08:13:57.073Z,212
2017-01-08T08:14:56.697Z,208
2017-01-08T08:15:56.338Z,212
2017-01-08T08:16:56.754Z,228
2017-01-08T08:17:56.386Z,236
2017-01-08T08:18:57.207Z,256
2017-01-08T08:19:56.435Z,264
2017-01-08T08:20:56.852Z,276
2017-01-08T08:21:57.273Z,288
2017-01-08T08:22:57.301Z,304
2017-01-08T08:23:57.330Z,316
2017-01-08T08:24:56.954Z,316
2017-01-08T08:25:56.587Z,328
2017-01-08T08:26:56.619Z,316
2017-01-08T08:27:57.040Z,340
2017-01-08T08:28:56.665Z,352
2017-01-08T08:29:56.298Z,372
2017-01-08T08:30:57.116Z,364
2017-01-08T08:31:57.543Z,372
2017-01-08T08:32:57.168Z,392
2017-01-08T08:33:57.193Z,412
2017-01-08T08:34:56.424Z,396
2017-01-08T08:35:56.853Z,396
2017-01-08T08:36:57.266Z,412
2017-01-08T08:37:57.295Z,436
2017-01-08T08:38:56.948Z,440
2017-01-08T08:39:57.356Z,468
2017-01-08T08:40:56.972Z,476
2017-01-08T08:41:57.407Z,476
2017-01-08T08:42:57.430Z,480
2017-01-08T08:43:57.439Z,492
2017-01-08T08:44:57.475Z,488
2017-01-08T08:45:57.106Z,472
2017-01-08T08:46:57.545Z,488
2017-01-08T08:47:57.557Z,484
2017-01-08T08:48:57.979Z,488
2017-01-08T08:49:56.807Z,528
2017-01-08T08:50:57.247Z,552
2017-01-08T08:51:57.280Z,532
2017-01-08T08:52:56.894Z,524
2017-01-08T08:53:57.317Z,532
2017-01-08T08:54:57.370Z,540
2017-01-08T08:55:58.159Z,556
2017-01-08T08:56:58.190Z,536
2017-01-08T08:57:57.428Z,512
2017-01-08T08:58:57.845Z,520
2017-01-08T08:59:57.882Z,540
2017-01-08T09:00:57.102Z,500
2017-01-08T09:01:57.531Z,464
2017-01-08T09:02:57.940Z,500
2017-01-08T09:03:57.989Z,516
2017-01-08T09:04:58.008Z,540
2017-01-08T09:05:58.017Z,564
2017-01-08T09:06:57.662Z,580
2017-01-08T09:07:57.287Z,584
2017-01-08T09:08:57.308Z,652
2017-01-08T09:09:57.725Z,712
2017-01-08T09:10:57.358Z,716
2017-01-08T09:11:58.570Z,744
2017-01-08T09:12:57.813Z,788
2017-01-08T09:13:57.447Z,784
2017-01-08T09:14:57.858Z,828
2017-01-08T09:15:58.280Z,884
2017-01-08T09:16:58.325Z,948
2017-01-08T09:17:57.950Z,1004
2017-01-08T09:18:58.363Z,1024
2017-01-08T09:19:58.384Z,944
2017-01-08T09:20:58.021Z,976
2017-01-08T09:21:58.051Z,1004
2017-01-08T09:22:58.853Z,1044
2017-01-08T09:23:58.499Z,1100
2017-01-08T09:24:58.511Z,1100
2017-01-08T09:25:57.778Z,1108
2017-01-08T09:26:58.965Z,1148
2017-01-08T09:27:59.003Z,1116
2017-01-08T09:28:58.262Z,1084
2017-01-08T09:29:58.263Z,1124
2017-01-08T09:30:59.068Z,1108
2017-01-08T09:31:57.910Z,1092
2017-01-08T09:32:59.117Z,1052
2017-01-08T09:33:58.742Z,1004
2017-01-08T09:34:59.173Z,992
2017-01-08T09:35:58.852Z,972
2017-01-08T09:36:58.429Z,928
2017-01-08T09:37:58.868Z,920
2017-01-08T09:38:58.878Z,952
2017-01-08T09:39:58.106Z,960
2017-01-08T09:40:58.523Z,940
2017-01-08T09:41:58.560Z,900
2017-01-08T09:42:58.985Z,952
2017-01-08T09:43:59.009Z,968
2017-01-08T09:44:59.426Z,1024
2017-01-08T09:45:58.662Z,1072
2017-01-08T09:46:59.483Z,1120
2017-01-08T09:47:59.124Z,1152
2017-01-08T09:48:58.769Z,1132
2017-01-08T09:49:58.778Z,1028
2017-01-08T09:50:58.783Z,972
2017-01-08T09:51:58.843Z,944
2017-01-08T09:52:58.444Z,928
2017-01-08T09:53:58.881Z,956
2017-01-08T09:54:58.898Z,1016
2017-01-08T09:55:59.711Z,984
2017-01-08T09:56:58.939Z,928
2017-01-08T09:57:58.984Z,940
2017-01-08T09:58:59.417Z,920
2017-01-08T09:59:59.836Z,872
2017-01-08T10:00:58.659Z,896
2017-01-08T10:01:59.068Z,940
2017-01-08T10:02:59.500Z,1028
2017-01-08T10:03:58.732Z,1064
2017-01-08T10:04:59.969Z,1124
2017-01-08T10:05:59.614Z,1204
2017-01-08T10:06:59.209Z,1200
2017-01-08T10:07:58.843Z,1140
2017-01-08T10:08:58.860Z,1160
2017-01-08T10:09:59.292Z,1116
2017-01-08T10:11:00.117Z,1104
2017-01-08T10:12:00.174Z,1092
2017-01-08T10:12:59.771Z,1120
2017-01-08T10:13:59.411Z,1116
2017-01-08T10:14:59.016Z,1124
2017-01-08T10:15:59.496Z,1132
2017-01-08T10:16:59.529Z,1176
2017-01-08T10:17:59.557Z,1212
2017-01-08T10:18:59.910Z,1232
2017-01-08T10:19:59.583Z,1232
2017-01-08T10:21:00.544Z,1240
2017-01-08T10:21:59.756Z,1264
2017-01-08T10:22:59.284Z,1252
2017-01-08T10:24:00.049Z,1232
2017-01-08T10:25:00.154Z,1236
2017-01-08T10:25:59.926Z,1248
2017-01-08T10:27:00.815Z,1368
2017-01-08T10:27:59.804Z,1396
2017-01-08T10:29:00.237Z,1360
2017-01-08T10:29:59.827Z,1336
2017-01-08T10:31:00.046Z,1368
2017-01-08T10:31:59.918Z,1344
2017-01-08T10:32:59.936Z,1304
2017-01-08T10:34:00.452Z,1272
2017-01-08T10:35:00.489Z,1244
2017-01-08T10:36:01.051Z,1264
2017-01-08T10:37:01.074Z,1324
2017-01-08T10:38:00.747Z,1404
2017-01-08T10:39:00.084Z,1468
2017-01-08T10:39:59.704Z,1456
2017-01-08T10:41:00.341Z,1392
2017-01-08T10:42:00.358Z,1360
2017-01-08T10:43:00.563Z,1356
2017-01-08T10:44:00.637Z,1368
2017-01-08T10:45:00.497Z,1308
2017-01-08T10:46:00.269Z,1208
2017-01-08T10:47:00.765Z,1172
2017-01-08T10:48:01.118Z,1148
2017-01-08T10:49:00.800Z,1152
2017-01-08T10:50:00.964Z,1188
2017-01-08T10:51:01.121Z,1196
2017-01-08T10:52:01.009Z,1188
2017-01-08T10:53:01.582Z,1152
2017-01-08T10:54:01.199Z,1148
2017-01-08T10:55:00.295Z,1200
2017-01-08T10:56:00.516Z,1220
2017-01-08T10:57:01.176Z,1224
2017-01-08T10:58:01.421Z,1260
2017-01-08T10:59:02.410Z,1280
2017-01-08T11:00:01.031Z,1256
2017-01-08T11:01:01.667Z,1240
2017-01-08T11:02:00.811Z,1232
2017-01-08T11:03:00.542Z,1228
2017-01-08T11:04:01.858Z,1256
2017-01-08T11:05:00.652Z,1280
2017-01-08T11:06:01.341Z,1296
2017-01-08T11:07:00.348Z,1304
2017-01-08T11:08:01.021Z,1256
2017-01-08T11:09:01.282Z,1224
2017-01-08T11:10:01.863Z,1204
2017-01-08T11:11:01.227Z,1220
2017-01-08T11:12:00.972Z,1284
2017-01-08T11:13:01.489Z,1408
2017-01-08T11:14:01.393Z,1468
2017-01-08T11:15:02.138Z,1484
2017-01-08T11:16:01.547Z,1476
2017-01-08T11:17:01.907Z,1488
2017-01-08T11:18:01.920Z,1516
2017-01-08T11:19:01.461Z,1556
2017-01-08T11:20:02.103Z,1632
2017-01-08T11:21:02.738Z,1664
2017-01-08T11:22:02.372Z,1692
2017-01-08T11:23:01.160Z,1812
2017-01-08T11:24:02.086Z,1884
2017-01-08T11:25:02.810Z,1936
2017-01-08T11:26:02.446Z,1964
2017-01-08T11:27:02.594Z,2000
2017-01-08T11:28:01.864Z,2036
2017-01-08T11:29:01.740Z,2072
2017-01-08T11:30:01.753Z,2088
2017-01-08T11:31:00.966Z,2152
2017-01-08T11:32:03.463Z,2112
2017-01-08T11:33:02.227Z,2012
2017-01-08T11:34:03.348Z,1924
2017-01-08T11:35:01.869Z,1708
2017-01-08T11:36:02.683Z,1636
2017-01-08T11:37:02.178Z,1716
2017-01-08T11:38:02.739Z,1776
2017-01-08T11:39:01.172Z,1772
2017-01-08T11:40:02.616Z,1712
2017-01-08T11:41:02.289Z,1660
2017-01-08T11:42:02.334Z,1716
2017-01-08T11:43:02.255Z,1632
2017-01-08T11:44:02.731Z,1520
2017-01-08T11:45:02.352Z,1476
2017-01-08T11:46:03.245Z,1420
2017-01-08T11:47:01.778Z,1484
2017-01-08T11:48:02.777Z,1512
2017-01-08T11:49:02.300Z,1552
2017-01-08T11:50:02.312Z,1532
2017-01-08T11:51:01.873Z,1484
2017-01-08T11:52:02.886Z,1456
2017-01-08T11:53:03.306Z,1420
2017-01-08T11:54:02.691Z,1480
2017-01-08T11:55:03.780Z,1580
2017-01-08T11:56:03.781Z,1720
2017-01-08T11:57:02.625Z,1824
2017-01-08T11:58:02.982Z,2032
2017-01-08T11:59:03.283Z,2068
2017-01-08T12:00:03.291Z,1936
2017-01-08T12:01:02.292Z,1736
2017-01-08T12:02:03.513Z,1476
2017-01-08T12:03:02.986Z,1364
2017-01-08T12:04:04.479Z,1344
2017-01-08T12:05:02.875Z,1348
2017-01-08T12:06:03.280Z,1328
2017-01-08T12:07:02.301Z,1360
2017-01-08T12:08:02.845Z,1376
2017-01-08T12:09:03.285Z,1348
2017-01-08T12:10:03.770Z,1320
2017-01-08T12:11:02.801Z,1340
2017-01-08T12:12:03.417Z,1328
2017-01-08T12:13:03.654Z,1308
2017-01-08T12:14:02.786Z,1308
2017-01-08T12:15:03.498Z,1324
2017-01-08T12:16:02.684Z,1392
2017-01-08T12:17:03.684Z,1348
2017-01-08T12:18:03.697Z,1304
2017-01-08T12:19:04.441Z,1360
2017-01-08T12:20:04.614Z,1364
2017-01-08T12:21:03.532Z,1320
2017-01-08T12:22:03.659Z,1244
2017-01-08T12:23:03.501Z,1220
2017-01-08T12:24:04.010Z,1180
2017-01-08T12:25:04.095Z,1148
2017-01-08T12:26:04.347Z,1212
2017-01-08T12:27:02.815Z,1272
2017-01-08T12:28:02.944Z,1264
2017-01-08T12:29:04.093Z,1260
2017-01-08T12:30:04.465Z,1336
2017-01-08T12:31:04.030Z,1352
2017-01-08T12:32:03.515Z,1364
2017-01-08T12:33:04.552Z,1452
2017-01-08T12:34:03.985Z,1504
2017-01-08T12:35:03.806Z,1572
2017-01-08T12:36:04.170Z,1548
2017-01-08T12:37:04.578Z,1520
2017-01-08T12:38:04.724Z,1488
2017-01-08T12:39:03.598Z,1392
2017-01-08T12:40:04.365Z,1400
2017-01-08T12:41:05.045Z,1424
2017-01-08T12:42:05.331Z,1368
2017-01-08T12:43:03.620Z,1412
2017-01-08T12:44:03.830Z,1428
2017-01-08T12:45:04.093Z,1364
2017-01-08T12:46:03.854Z,1440
2017-01-08T12:47:04.267Z,1540
2017-01-08T12:48:05.312Z,1472
2017-01-08T12:49:04.928Z,1488
2017-01-08T12:50:04.594Z,1512
2017-01-08T12:51:03.503Z,1536
2017-01-08T12:52:05.051Z,1624
2017-01-08T12:53:04.744Z,1576
2017-01-08T12:54:04.582Z,1428
2017-01-08T12:55:04.438Z,1376
2017-01-08T12:56:04.983Z,1384
2017-01-08T12:57:04.288Z,1424
2017-01-08T12:58:04.892Z,1468
2017-01-08T12:59:03.722Z,1500
2017-01-08T13:00:04.697Z,1480
2017-01-08T13:01:05.234Z,1448
2017-01-08T13:02:04.845Z,1364
2017-01-08T13:03:04.952Z,1244
2017-01-08T13:04:04.476Z,1324
2017-01-08T13:05:04.905Z,1288
2017-01-08T13:06:05.306Z,1180
2017-01-08T13:07:04.867Z,1136
2017-01-08T13:08:04.540Z,1148
2017-01-08T13:09:05.304Z,1136
2017-01-08T13:10:04.572Z,1108
2017-01-08T13:11:04.973Z,1148
2017-01-08T13:12:05.946Z,1188
2017-01-08T13:13:06.047Z,1124
2017-01-08T13:14:06.195Z,1060
2017-01-08T13:15:04.585Z,1076
2017-01-08T13:16:04.701Z,1108
2017-01-08T13:17:06.027Z,1136
2017-01-08T13:18:05.320Z,1160
2017-01-08T13:19:04.672Z,1152
2017-01-08T13:20:04.905Z,1116
2017-01-08T13:21:04.579Z,1100
2017-01-08T13:22:05.333Z,1140
2017-01-08T13:23:05.239Z,1224
2017-01-08T13:24:05.707Z,1236
2017-01-08T13:25:04.568Z,1168
2017-01-08T13:26:05.489Z,1024
2017-01-08T13:27:04.785Z,1112
2017-01-08T13:28:05.812Z,1148
2017-01-08T13:29:05.982Z,996
2017-01-08T13:30:06.316Z,792
2017-01-08T13:31:04.521Z,816
2017-01-08T13:32:05.633Z,964
2017-01-08T13:33:07.070Z,1008
2017-01-08T13:34:05.192Z,860
2017-01-08T13:35:06.235Z,768
2017-01-08T13:36:05.283Z,792
2017-01-08T13:37:05.365Z,824
2017-01-08T13:38:06.331Z,788
2017-01-08T13:39:04.754Z,736
2017-01-08T13:40:05.474Z,832
2017-01-08T13:41:06.390Z,932
2017-01-08T13:42:06.468Z,1024
2017-01-08T13:43:04.782Z,988
2017-01-08T13:44:07.350Z,944
2017-01-08T13:45:06.385Z,916
2017-01-08T13:46:05.386Z,900
2017-01-08T13:47:04.956Z,820
2017-01-08T13:48:05.580Z,748
2017-01-08T13:49:06.469Z,764
2017-01-08T13:50:06.164Z,784
2017-01-08T13:51:05.172Z,752
2017-01-08T13:52:05.664Z,716
2017-01-08T13:53:07.020Z,692
2017-01-08T13:54:06.489Z,700
2017-01-08T13:55:07.298Z,704
2017-01-08T13:56:05.743Z,728
2017-01-08T13:57:06.068Z,728
2017-01-08T13:58:06.155Z,704
2017-01-08T13:59:07.477Z,660
2017-01-08T14:00:05.530Z,680
2017-01-08T14:01:05.985Z,728
2017-01-08T14:02:05.939Z,732
2017-01-08T14:03:05.768Z,692
2017-01-08T14:04:05.908Z,628
2017-01-08T14:05:06.746Z,628
2017-01-08T14:06:05.898Z,652
2017-01-08T14:07:07.019Z,604
2017-01-08T14:08:06.080Z,556
2017-01-08T14:09:06.820Z,532
2017-01-08T14:10:06.918Z,496